createdAt,value
2018-05-14T00:00:57.695Z,15.80
2018-05-14T00:03:25.253Z,15.80
2018-05-14T00:05:52.815Z,15.70
2018-05-14T00:08:20.338Z,15.70
2018-05-14T00:10:48.655Z,15.60
2018-05-14T00:13:16.200Z,15.60
2018-05-14T00:15:43.767Z,15.60
2018-05-14T00:18:11.308Z,15.60
2018-05-14T00:20:39.669Z,15.40
2018-05-14T00:23:07.211Z,15.40
2018-05-14T00:25:34.762Z,15.50
2018-05-14T00:28:02.317Z,15.40
2018-05-14T00:30:29.879Z,15.40
2018-05-14T00:32:57.413Z,15.30
2018-05-14T00:35:25.007Z,15.30
2018-05-14T00:37:52.531Z,15.30
2018-05-14T00:40:20.079Z,15.30
2018-05-14T00:42:47.624Z,15.30
2018-05-14T00:45:15.945Z,15.20
2018-05-14T00:47:43.492Z,15.20
2018-05-14T00:50:11.064Z,15.20
2018-05-14T00:52:38.611Z,15.30
2018-05-14T00:55:17.152Z,15.40
2018-05-14T00:57:44.704Z,15.60
2018-05-14T01:00:12.268Z,15.60
2018-05-14T01:02:39.818Z,15.60
2018-05-14T01:05:07.379Z,15.60
2018-05-14T01:07:39.934Z,15.60
2018-05-14T01:10:07.516Z,15.50
2018-05-14T01:12:35.052Z,15.40
2018-05-14T01:15:02.624Z,15.30
2018-05-14T01:17:30.153Z,15.30
2018-05-14T01:19:58.496Z,15.20
2018-05-14T01:22:26.032Z,15.20
2018-05-14T01:24:59.363Z,15.10
2018-05-14T01:27:26.894Z,15.10
2018-05-14T01:29:54.428Z,15.10
2018-05-14T01:32:21.995Z,15.10
2018-05-14T01:34:49.552Z,15.00
2018-05-14T01:37:17.118Z,15.00
2018-05-14T01:39:44.658Z,15.00
2018-05-14T01:42:12.981Z,14.90
2018-05-14T01:44:40.518Z,14.90
2018-05-14T01:47:08.082Z,14.90
2018-05-14T01:49:35.640Z,14.90
2018-05-14T01:52:03.237Z,14.80
2018-05-14T01:54:30.772Z,14.80
2018-05-14T01:56:58.335Z,14.80
2018-05-14T01:59:25.881Z,14.90
2018-05-14T02:01:53.436Z,14.90
2018-05-14T02:04:20.977Z,14.90
2018-05-14T02:06:48.581Z,14.90
2018-05-14T02:09:16.104Z,15.00
2018-05-14T02:11:43.670Z,15.00
2018-05-14T02:14:11.208Z,15.00
2018-05-14T02:16:39.540Z,14.80
2018-05-14T02:19:07.076Z,14.90
2018-05-14T02:21:34.635Z,14.70
2018-05-14T02:24:02.172Z,14.60
2018-05-14T02:26:30.493Z,14.60
2018-05-14T02:28:58.820Z,14.50
2018-05-14T02:31:27.152Z,14.50
2018-05-14T02:33:54.687Z,14.40
2018-05-14T02:36:22.241Z,14.40
2018-05-14T02:38:49.783Z,14.40
2018-05-14T02:41:18.121Z,14.40
2018-05-14T02:43:45.672Z,14.40
2018-05-14T02:46:13.199Z,14.50
2018-05-14T02:48:40.757Z,14.50
2018-05-14T02:51:08.297Z,14.50
2018-05-14T02:53:36.628Z,14.50
2018-05-14T02:56:04.169Z,14.40
2018-05-14T02:58:31.723Z,14.40
2018-05-14T03:00:59.272Z,14.30
2018-05-14T03:03:26.832Z,14.30
2018-05-14T03:05:54.373Z,14.30
2018-05-14T03:08:22.697Z,14.20
2018-05-14T03:10:50.237Z,14.20
2018-05-14T03:13:17.791Z,14.20
2018-05-14T03:15:45.371Z,14.20
2018-05-14T03:18:13.659Z,14.20
2018-05-14T03:20:41.213Z,14.20
2018-05-14T03:23:08.771Z,14.20
2018-05-14T03:25:36.312Z,14.30
2018-05-14T03:28:03.871Z,14.20
2018-05-14T03:30:31.400Z,14.20
2018-05-14T03:32:58.957Z,14.20
2018-05-14T03:35:26.484Z,14.20
2018-05-14T03:37:54.056Z,14.10
2018-05-14T03:40:21.581Z,14.10
2018-05-14T03:42:49.140Z,14.20
2018-05-14T03:45:16.689Z,14.20
2018-05-14T03:47:44.267Z,14.20
2018-05-14T03:50:11.812Z,14.20
2018-05-14T03:52:39.354Z,14.20
2018-05-14T03:55:07.691Z,14.20
2018-05-14T03:57:35.249Z,14.20
2018-05-14T04:00:14.614Z,14.20
2018-05-14T04:02:54.800Z,14.40
2018-05-14T04:08:17.274Z,14.40
2018-05-14T04:10:44.807Z,14.50
2018-05-14T04:13:13.097Z,14.60
2018-05-14T04:15:40.661Z,14.50
2018-05-14T04:18:08.216Z,14.60
2018-05-14T04:20:36.073Z,14.60
2018-05-14T04:23:03.653Z,14.70
2018-05-14T04:25:31.212Z,14.80
2018-05-14T04:27:58.744Z,14.90
2018-05-14T04:30:26.299Z,15.10
2018-05-14T04:32:53.824Z,15.20
2018-05-14T04:35:21.386Z,15.90
2018-05-14T04:37:48.908Z,17.10
2018-05-14T04:40:17.219Z,19.20
2018-05-14T04:42:44.755Z,19.10
2018-05-14T04:45:12.320Z,20.10
2018-05-14T04:47:39.853Z,20.20
2018-05-14T04:50:08.180Z,21.10
2018-05-14T04:52:35.730Z,21.10
2018-05-14T04:55:03.285Z,21.50
2018-05-14T04:57:30.813Z,21.50
2018-05-14T04:59:59.130Z,22.00
2018-05-14T05:02:26.670Z,21.90
2018-05-14T05:04:54.243Z,21.40
2018-05-14T05:07:21.769Z,21.80
2018-05-14T05:09:49.344Z,22.50
2018-05-14T05:12:16.873Z,22.80
2018-05-14T05:14:44.412Z,22.90
2018-05-14T05:17:11.950Z,22.30
2018-05-14T05:19:39.524Z,22.40
2018-05-14T05:22:07.062Z,23.10
2018-05-14T05:24:34.608Z,22.80
2018-05-14T05:27:02.156Z,22.90
2018-05-14T05:29:30.462Z,23.60
2018-05-14T05:31:58.015Z,23.60
2018-05-14T05:34:25.635Z,23.40
2018-05-14T05:36:53.112Z,23.80
2018-05-14T05:39:21.411Z,24.30
2018-05-14T05:41:48.969Z,24.20
2018-05-14T05:44:16.500Z,23.90
2018-05-14T05:46:44.068Z,23.40
2018-05-14T05:49:12.363Z,23.70
2018-05-14T05:51:39.908Z,23.70
2018-05-14T05:54:08.199Z,24.30
2018-05-14T05:56:35.737Z,24.30
2018-05-14T05:59:04.036Z,25.10
2018-05-14T06:01:31.601Z,25.00
2018-05-14T06:03:59.129Z,25.60
2018-05-14T06:06:27.457Z,24.30
2018-05-14T06:08:54.995Z,24.30
2018-05-14T06:11:22.564Z,24.90
2018-05-14T06:13:50.109Z,25.30
2018-05-14T06:16:17.694Z,25.00
2018-05-14T06:18:45.250Z,25.50
2018-05-14T06:21:12.828Z,24.70
2018-05-14T06:23:40.378Z,24.90
2018-05-14T06:26:07.937Z,24.60
2018-05-14T06:28:35.499Z,24.40
2018-05-14T06:31:03.060Z,25.20
2018-05-14T06:33:30.622Z,25.50
2018-05-14T06:35:58.200Z,25.70
2018-05-14T06:38:25.756Z,25.90
2018-05-14T06:40:53.376Z,26.40
2018-05-14T06:43:20.948Z,26.30
2018-05-14T06:45:48.494Z,25.70
2018-05-14T06:48:16.831Z,25.10
2018-05-14T06:50:44.362Z,25.10
2018-05-14T06:53:11.915Z,25.30
2018-05-14T06:55:39.449Z,24.90
2018-05-14T06:58:07.007Z,24.80
2018-05-14T07:00:35.312Z,25.60
2018-05-14T07:03:02.863Z,25.70
2018-05-14T07:05:30.395Z,25.10
2018-05-14T07:07:58.721Z,25.00
2018-05-14T07:10:26.275Z,25.00
2018-05-14T07:12:53.935Z,24.80
2018-05-14T07:15:21.472Z,24.70
2018-05-14T07:17:49.076Z,25.10
2018-05-14T07:20:16.613Z,25.20
2018-05-14T07:22:44.178Z,25.30
2018-05-14T07:25:11.706Z,25.20
2018-05-14T07:27:39.270Z,25.30
2018-05-14T07:30:06.830Z,25.40
2018-05-14T07:32:34.393Z,25.90
2018-05-14T07:35:01.938Z,26.20
2018-05-14T07:37:30.277Z,26.40
2018-05-14T07:39:57.821Z,26.40
2018-05-14T07:42:25.381Z,26.50
2018-05-14T07:44:52.927Z,26.80
2018-05-14T07:47:20.492Z,26.20
2018-05-14T07:49:48.020Z,26.30
2018-05-14T07:52:16.360Z,26.20
2018-05-14T07:54:43.902Z,26.20
2018-05-14T07:57:11.446Z,25.80
2018-05-14T07:59:39.006Z,26.00
2018-05-14T08:02:06.542Z,25.50
2018-05-14T08:04:34.884Z,26.70
2018-05-14T08:07:02.423Z,26.70
2018-05-14T08:09:30.748Z,26.50
2018-05-14T08:11:58.312Z,26.50
2018-05-14T08:14:26.633Z,26.90
2018-05-14T08:16:54.174Z,26.80
2018-05-14T08:19:21.757Z,25.90
2018-05-14T08:21:49.311Z,26.30
2018-05-14T08:24:16.885Z,26.60
2018-05-14T08:26:44.461Z,26.80
2018-05-14T08:29:12.009Z,26.20
2018-05-14T08:31:39.561Z,26.00
2018-05-14T08:34:07.109Z,26.20
2018-05-14T08:36:34.667Z,26.00
2018-05-14T08:39:02.224Z,25.50
2018-05-14T08:41:29.753Z,25.60
2018-05-14T08:43:58.065Z,25.50
2018-05-14T08:46:25.607Z,25.40
2018-05-14T08:48:53.568Z,25.80
2018-05-14T08:51:21.122Z,25.90
2018-05-14T08:53:48.858Z,26.20
2018-05-14T08:56:16.244Z,26.90
2018-05-14T08:58:44.565Z,27.80
2018-05-14T09:01:12.102Z,27.80
2018-05-14T09:03:39.664Z,27.70
2018-05-14T09:06:07.224Z,28.10
2018-05-14T09:08:34.828Z,27.40
2018-05-14T09:11:02.377Z,26.50
2018-05-14T09:13:29.933Z,25.90
2018-05-14T09:15:57.509Z,25.30
2018-05-14T09:18:25.046Z,25.60
2018-05-14T09:20:53.029Z,25.90
2018-05-14T09:23:20.603Z,25.50
2018-05-14T09:25:48.171Z,25.50
2018-05-14T09:28:15.714Z,26.10
2018-05-14T09:30:43.271Z,26.20
2018-05-14T09:33:10.815Z,26.40
2018-05-14T09:35:38.368Z,26.00
2018-05-14T09:38:05.896Z,26.10
2018-05-14T09:40:34.228Z,26.00
2018-05-14T09:43:01.783Z,26.00
2018-05-14T09:45:29.349Z,26.00
2018-05-14T09:47:56.908Z,26.50
2018-05-14T09:50:24.507Z,26.00
2018-05-14T09:52:52.057Z,26.40
2018-05-14T09:55:19.609Z,25.90
2018-05-14T09:57:47.162Z,26.10
2018-05-14T10:00:15.493Z,26.60
2018-05-14T10:02:43.048Z,26.60
2018-05-14T10:05:10.614Z,26.30
2018-05-14T10:07:38.166Z,26.50
2018-05-14T10:10:05.723Z,26.60
2018-05-14T10:12:33.275Z,25.70
2018-05-14T10:15:01.641Z,25.90
2018-05-14T10:17:29.180Z,25.80
2018-05-14T10:19:56.752Z,26.30
2018-05-14T10:22:24.293Z,26.20
2018-05-14T10:24:51.850Z,26.40
2018-05-14T10:27:19.413Z,26.50
2018-05-14T10:29:46.973Z,26.60
2018-05-14T10:32:14.546Z,26.40
2018-05-14T10:34:42.081Z,26.20
2018-05-14T10:37:09.640Z,26.00
2018-05-14T10:39:37.185Z,25.90
2018-05-14T10:42:04.763Z,26.00
2018-05-14T10:44:32.292Z,26.30
2018-05-14T10:46:59.857Z,26.20
2018-05-14T10:49:27.428Z,25.70
2018-05-14T10:51:54.992Z,25.70
2018-05-14T10:54:22.528Z,25.90
2018-05-14T10:56:50.102Z,25.70
2018-05-14T10:59:17.662Z,25.60
2018-05-14T11:01:45.235Z,25.50
2018-05-14T11:04:12.781Z,26.10
2018-05-14T11:06:40.335Z,25.80
2018-05-14T11:09:07.881Z,25.70
2018-05-14T11:11:35.461Z,25.10
2018-05-14T11:14:03.015Z,25.20
2018-05-14T11:16:30.593Z,25.10
2018-05-14T11:18:58.148Z,25.20
2018-05-14T11:21:25.711Z,25.20
2018-05-14T11:23:53.250Z,25.20
2018-05-14T11:26:21.566Z,25.10
2018-05-14T11:28:49.108Z,25.10
2018-05-14T11:31:16.667Z,25.00
2018-05-14T11:33:44.223Z,25.20
2018-05-14T11:36:11.800Z,24.70
2018-05-14T11:38:39.362Z,24.50
2018-05-14T11:41:06.984Z,24.30
2018-05-14T11:43:34.498Z,24.10
2018-05-14T11:46:02.036Z,24.10
2018-05-14T11:48:30.510Z,24.10
2018-05-14T11:50:58.053Z,24.10
2018-05-14T11:53:25.637Z,24.20
2018-05-14T11:55:53.593Z,24.20
2018-05-14T11:58:21.170Z,23.90
2018-05-14T12:00:48.724Z,24.10
2018-05-14T12:03:16.269Z,23.90
2018-05-14T12:05:43.808Z,23.80
2018-05-14T12:08:12.228Z,23.90
2018-05-14T12:10:39.773Z,23.90
2018-05-14T12:13:07.331Z,23.70
2018-05-14T12:15:35.672Z,23.60
2018-05-14T12:18:03.238Z,23.90
2018-05-14T12:20:30.776Z,24.10
2018-05-14T12:22:58.352Z,23.80
2018-05-14T12:25:25.883Z,24.00
2018-05-14T12:27:53.442Z,23.90
2018-05-14T12:30:20.988Z,23.80
2018-05-14T12:32:48.565Z,23.80
2018-05-14T12:35:16.122Z,23.90
2018-05-14T12:37:43.680Z,24.10
2018-05-14T12:40:11.230Z,24.20
2018-05-14T12:42:38.821Z,24.10
2018-05-14T12:45:06.384Z,24.00
2018-05-14T12:47:33.941Z,23.90
2018-05-14T12:50:01.507Z,24.10
2018-05-14T12:52:29.140Z,23.80
2018-05-14T12:54:56.728Z,23.90
2018-05-14T12:57:24.262Z,23.90
2018-05-14T12:59:51.818Z,24.10
2018-05-14T13:02:19.360Z,24.00
2018-05-14T13:04:46.952Z,23.90
2018-05-14T13:07:14.501Z,23.90
2018-05-14T13:09:42.065Z,24.00
2018-05-14T13:12:09.616Z,23.60
2018-05-14T13:14:37.211Z,23.70
2018-05-14T13:17:04.759Z,23.80
2018-05-14T13:19:33.201Z,23.90
2018-05-14T13:22:00.763Z,23.90
2018-05-14T13:24:28.369Z,24.00
2018-05-14T13:26:56.934Z,23.90
2018-05-14T13:29:25.489Z,24.00
2018-05-14T13:31:53.042Z,23.90
2018-05-14T13:34:20.607Z,23.70
2018-05-14T13:36:49.076Z,23.50
2018-05-14T13:39:16.693Z,23.80
2018-05-14T13:41:44.240Z,23.70
2018-05-14T13:44:11.875Z,23.80
2018-05-14T13:46:39.384Z,23.60
2018-05-14T13:49:06.954Z,23.80
2018-05-14T13:51:34.579Z,23.50
2018-05-14T13:54:02.193Z,23.50
2018-05-14T13:56:30.504Z,23.50
2018-05-14T13:58:58.066Z,23.50
2018-05-14T14:01:25.669Z,23.40
2018-05-14T14:03:53.311Z,23.40
2018-05-14T14:06:20.945Z,23.50
2018-05-14T14:08:48.526Z,23.60
2018-05-14T14:11:16.086Z,23.50
2018-05-14T14:13:43.650Z,23.80
2018-05-14T14:16:12.212Z,23.40
2018-05-14T14:18:39.769Z,23.40
2018-05-14T14:21:07.360Z,23.40
2018-05-14T14:23:35.089Z,23.40
2018-05-14T14:26:02.492Z,23.20
2018-05-14T14:28:30.028Z,23.00
2018-05-14T14:30:57.592Z,23.20
2018-05-14T14:33:25.137Z,23.20
2018-05-14T14:35:52.792Z,23.40
2018-05-14T14:38:20.305Z,23.40
2018-05-14T14:40:47.937Z,23.40
2018-05-14T14:43:15.612Z,23.30
2018-05-14T14:45:43.167Z,23.20
2018-05-14T14:48:10.708Z,23.10
2018-05-14T14:50:38.348Z,23.10
2018-05-14T14:53:06.782Z,23.00
2018-05-14T14:55:34.405Z,22.90
2018-05-14T14:58:01.968Z,22.90
2018-05-14T15:00:29.532Z,22.90
2018-05-14T15:02:57.083Z,22.90
2018-05-14T15:05:24.664Z,22.90
2018-05-14T15:07:52.226Z,22.90
2018-05-14T15:10:19.824Z,22.90
2018-05-14T15:12:47.369Z,22.90
2018-05-14T15:15:14.944Z,22.90
2018-05-14T15:17:42.529Z,22.90
2018-05-14T15:20:10.844Z,23.00
2018-05-14T15:22:38.463Z,23.00
2018-05-14T15:25:06.778Z,22.90
2018-05-14T15:27:34.353Z,22.90
2018-05-14T15:30:01.898Z,22.80
2018-05-14T15:32:29.459Z,22.90
2018-05-14T15:34:57.006Z,22.70
2018-05-14T15:37:24.626Z,22.70
2018-05-14T15:39:52.178Z,22.70
2018-05-14T15:42:20.565Z,22.60
2018-05-14T15:44:48.117Z,22.50
2018-05-14T15:47:15.681Z,22.60
2018-05-14T15:49:43.902Z,22.60
2018-05-14T15:52:11.481Z,22.60
2018-05-14T15:54:39.041Z,22.50
2018-05-14T15:57:06.633Z,22.50
2018-05-14T15:59:34.198Z,22.50
2018-05-14T16:02:01.870Z,22.50
2018-05-14T16:04:30.203Z,22.40
2018-05-14T16:06:57.760Z,22.30
2018-05-14T16:09:25.333Z,22.30
2018-05-14T16:11:52.887Z,22.30
2018-05-14T16:14:20.424Z,22.30
2018-05-14T16:16:47.999Z,22.30
2018-05-14T16:19:15.557Z,22.20
2018-05-14T16:21:43.116Z,22.30
2018-05-14T16:24:10.640Z,22.30
2018-05-14T16:26:39.053Z,22.30
2018-05-14T16:29:07.348Z,22.40
2018-05-14T16:31:34.914Z,22.40
2018-05-14T16:34:02.513Z,22.40
2018-05-14T16:36:30.078Z,22.30
2018-05-14T16:38:57.633Z,22.20
2018-05-14T16:41:25.967Z,22.10
2018-05-14T16:43:54.313Z,21.90
2018-05-14T16:46:21.886Z,21.90
2018-05-14T16:48:49.452Z,21.90
2018-05-14T16:51:16.979Z,21.90
2018-05-14T16:53:44.554Z,21.90
2018-05-14T16:56:12.883Z,21.80
2018-05-14T16:58:40.495Z,21.80
2018-05-14T17:01:08.826Z,21.80
2018-05-14T17:03:36.407Z,21.80
2018-05-14T17:06:03.971Z,21.70
2018-05-14T17:08:31.526Z,21.70
2018-05-14T17:10:59.083Z,21.70
2018-05-14T17:13:26.664Z,21.60
2018-05-14T17:15:54.973Z,21.40
2018-05-14T17:18:22.548Z,21.40
2018-05-14T17:20:50.086Z,21.40
2018-05-14T17:23:17.654Z,21.30
2018-05-14T17:25:45.211Z,21.20
2018-05-14T17:28:12.773Z,21.20
2018-05-14T17:30:40.311Z,21.20
2018-05-14T17:35:49.623Z,21.10
2018-05-14T17:38:17.201Z,21.00
2018-05-14T17:40:44.780Z,20.90
2018-05-14T17:43:13.115Z,20.90
2018-05-14T17:45:40.667Z,20.90
2018-05-14T17:48:08.253Z,20.80
2018-05-14T17:50:35.836Z,20.70
2018-05-14T17:53:03.400Z,20.60
2018-05-14T17:55:31.728Z,20.50
2018-05-14T17:57:59.283Z,20.50
2018-05-14T18:00:26.850Z,20.40
2018-05-14T18:02:54.723Z,20.40
2018-05-14T18:05:22.354Z,20.30
2018-05-14T18:07:49.950Z,20.20
2018-05-14T18:10:17.517Z,20.20
2018-05-14T18:12:45.055Z,20.10
2018-05-14T18:15:12.624Z,20.00
2018-05-14T18:17:40.245Z,19.90
2018-05-14T18:20:13.466Z,19.90
2018-05-14T18:22:41.050Z,19.80
2018-05-14T18:25:14.368Z,19.80
2018-05-14T18:27:47.627Z,19.70
2018-05-14T18:30:15.209Z,19.60
2018-05-14T18:32:48.336Z,19.50
2018-05-14T18:35:21.390Z,19.30
2018-05-14T18:37:48.955Z,19.30
2018-05-14T18:40:16.612Z,19.20
2018-05-14T18:42:44.166Z,19.10
2018-05-14T18:45:12.536Z,19.00
2018-05-14T18:47:40.854Z,18.90
2018-05-14T18:50:09.217Z,18.90
2018-05-14T18:52:36.766Z,18.90
2018-05-14T18:55:04.329Z,18.80
2018-05-14T18:57:31.863Z,18.70
2018-05-14T18:59:59.440Z,18.70
2018-05-14T19:02:26.976Z,18.50
2018-05-14T19:04:54.548Z,18.30
2018-05-14T19:07:22.090Z,18.20
2018-05-14T19:09:49.687Z,18.10
2018-05-14T19:12:17.235Z,17.90
2018-05-14T19:14:50.520Z,17.80
2018-05-14T19:17:23.632Z,17.70
2018-05-14T19:19:51.224Z,17.60
2018-05-14T19:22:24.370Z,17.50
2018-05-14T19:24:52.527Z,17.50
2018-05-14T19:27:20.065Z,17.40
2018-05-14T19:29:47.609Z,17.40
2018-05-14T19:32:15.182Z,17.30
2018-05-14T19:34:48.313Z,17.30
2018-05-14T19:37:15.868Z,17.20
2018-05-14T19:39:49.150Z,17.10
2018-05-14T19:42:16.706Z,17.10
2018-05-14T19:44:44.263Z,17.10
2018-05-14T19:47:11.820Z,17.10
2018-05-14T19:49:39.368Z,17.10
2018-05-14T19:52:06.950Z,17.10
2018-05-14T19:54:34.493Z,17.10
2018-05-14T19:57:02.061Z,17.00
2018-05-14T19:59:29.617Z,16.90
2018-05-14T20:01:57.191Z,16.90
2018-05-14T20:04:24.733Z,16.90
2018-05-14T20:06:53.336Z,16.90
2018-05-14T20:09:20.906Z,16.90
2018-05-14T20:11:48.456Z,16.90
2018-05-14T20:14:15.991Z,16.80
2018-05-14T20:16:44.315Z,16.80
2018-05-14T20:19:11.876Z,16.70
2018-05-14T20:21:39.431Z,16.80
2018-05-14T20:24:06.980Z,16.70
2018-05-14T20:26:34.555Z,16.70
2018-05-14T20:29:02.123Z,16.80
2018-05-14T20:31:29.873Z,16.80
2018-05-14T20:33:58.168Z,16.70
2018-05-14T20:36:25.708Z,16.70
2018-05-14T20:38:53.281Z,16.70
2018-05-14T20:41:20.841Z,16.60
2018-05-14T20:43:48.391Z,16.60
2018-05-14T20:46:15.961Z,16.60
2018-05-14T20:48:43.551Z,16.50
2018-05-14T20:51:11.081Z,16.50
2018-05-14T20:53:38.644Z,16.40
2018-05-14T20:56:06.224Z,16.40
2018-05-14T20:58:33.774Z,16.40
2018-05-14T21:01:01.303Z,16.40
2018-05-14T21:03:28.874Z,16.40
2018-05-14T21:05:56.426Z,16.40
2018-05-14T21:08:24.041Z,16.30
2018-05-14T21:10:51.627Z,16.30
2018-05-14T21:13:19.215Z,16.20
2018-05-14T21:15:46.751Z,16.10
2018-05-14T21:18:15.088Z,16.00
2018-05-14T21:20:42.650Z,16.00
2018-05-14T21:23:11.172Z,16.00
2018-05-14T21:25:38.704Z,16.00
2018-05-14T21:28:08.232Z,15.90
2018-05-14T21:30:36.525Z,15.70
2018-05-14T21:33:04.089Z,15.70
2018-05-14T21:35:31.610Z,15.70
2018-05-14T21:37:59.253Z,15.60
2018-05-14T21:40:27.513Z,15.40
2018-05-14T21:42:55.093Z,15.40
2018-05-14T21:45:22.732Z,15.30
2018-05-14T21:47:50.258Z,15.20
2018-05-14T21:50:18.607Z,15.10
2018-05-14T21:52:46.125Z,15.10
2018-05-14T21:55:13.673Z,15.10
2018-05-14T22:00:22.228Z,14.90
2018-05-14T22:02:49.766Z,15.00
2018-05-14T22:05:17.319Z,14.90
2018-05-14T22:07:45.641Z,14.70
2018-05-14T22:10:13.208Z,14.70
2018-05-14T22:12:40.744Z,14.70
2018-05-14T22:15:09.205Z,14.70
2018-05-14T22:17:36.738Z,14.50
2018-05-14T22:20:04.283Z,14.40
2018-05-14T22:22:31.816Z,14.40
2018-05-14T22:25:00.143Z,14.30
2018-05-14T22:27:28.438Z,14.20
2018-05-14T22:29:56.775Z,14.10
2018-05-14T22:32:24.323Z,14.10
2018-05-14T22:34:51.873Z,14.10
2018-05-14T22:37:19.489Z,14.00
2018-05-14T22:39:47.008Z,14.00
2018-05-14T22:42:14.571Z,14.00
2018-05-14T22:44:42.129Z,14.00
2018-05-14T22:47:09.668Z,13.90
2018-05-14T22:49:37.240Z,13.90
2018-05-14T22:52:04.783Z,13.80
2018-05-14T22:54:38.169Z,13.80
2018-05-14T22:57:05.729Z,13.70
2018-05-14T22:59:33.289Z,13.70
2018-05-14T23:02:00.845Z,13.70
2018-05-14T23:04:28.412Z,13.70
2018-05-14T23:06:55.951Z,13.70
2018-05-14T23:09:24.322Z,13.60
2018-05-14T23:11:51.861Z,13.60
2018-05-14T23:14:19.395Z,13.60
2018-05-14T23:16:46.991Z,13.60
2018-05-14T23:19:14.531Z,13.50
2018-05-14T23:21:42.107Z,13.50
2018-05-14T23:24:09.641Z,13.50
2018-05-14T23:26:37.191Z,13.50
2018-05-14T23:29:04.756Z,13.40
2018-05-14T23:31:32.309Z,13.40
2018-05-14T23:33:59.835Z,13.30
2018-05-14T23:36:27.393Z,13.30
2018-05-14T23:38:54.942Z,13.20
2018-05-14T23:41:23.435Z,13.20
2018-05-14T23:43:51.720Z,13.20
2018-05-14T23:46:19.273Z,13.10
2018-05-14T23:48:47.576Z,13.10
2018-05-14T23:51:15.143Z,13.10
2018-05-14T23:53:42.673Z,13.10
2018-05-14T23:56:10.236Z,13.20
2018-05-14T23:58:37.787Z,13.10
